Time;durP1;ratioP1;P1;durP2;ratioP2;P2;SDS_P1;SDS_P2;PMS_P1;PMS_P2;Temp;Humidity;BMP_temperature;BMP_pressure;BME280_temperature;BME280_humidity;BME280_pressure;Samples;Min_cycle;Max_cycle;Signal;HPM_P1;HPM_P2
2023/01/13 00:01:53;;;;;;;;;;;;;;;;;;4948920;29;19926;-80
2023/01/13 00:04:19;;;;;;;;;;;;;;;;;;4929443;29;20381;-81
2023/01/13 00:06:44;;;;;;;;;;;;;;;;;;4946751;29;20382;-82
2023/01/13 00:09:09;;;;;;;;;;;;;;;;;;4912214;29;19939;-81
2023/01/13 00:11:35;;;;;;;;;;;;;;;;;;4947951;29;19922;-81
2023/01/13 00:14:00;;;;;;;;;;;;;;;;;;4931214;29;19922;-81
2023/01/13 00:16:26;;;;;;;;;;;;;;;;;;4946882;29;19922;-80
2023/01/13 00:18:51;;;;;;;;;;;;;;;;;;4927927;29;19921;-80
2023/01/13 00:21:17;;;;;;;;;;;;;;;;;;4928249;29;19982;-81
2023/01/13 00:23:42;;;;;;;;;;;;;;;;;;4945541;29;19918;-81
2023/01/13 00:26:07;;;;;;;;;;;;;;;;;;4948182;29;19958;-82
2023/01/13 00:28:33;;;;;;;;;;;;;;;;;;4934637;29;19915;-81
2023/01/13 00:30:58;;;;;;;;;;;;;;;;;;4935158;29;19915;-81
2023/01/13 00:33:23;;;;;;;;;;;;;;;;;;4935097;29;19966;-81
2023/01/13 00:35:49;;;;;;;;;;;;;;;;;;4951799;29;20291;-81
2023/01/13 00:38:14;;;;;;;;;;;;;;;;;;4951551;29;19914;-81
2023/01/13 00:40:40;;;;;;;;;;;;;;;;;;4950182;29;19915;-80
2023/01/13 00:43:24;;;;;;;;;;;;;;;;;;4949077;29;19922;-81
2023/01/13 00:45:52;;;;;;;;;;;;;;;;;;4945385;29;20429;-81
2023/01/13 00:48:18;;;;;;;;;;;;;;;;;;4927704;29;19962;-81
2023/01/13 00:50:43;;;;;;;;;;;;;;;;;;4928489;29;19915;-81
2023/01/13 00:53:08;;;;;;;;;;;;;;;;;;4929120;29;19918;-81
2023/01/13 00:55:34;;;;;;;;;;;;;;;;;;4945795;29;19914;-82
2023/01/13 00:58:02;;;;;;;;;;;;;;;;;;4928497;29;19966;-81
2023/01/13 01:00:27;;;;;;;;;;;;;;;;;;4927259;29;19915;-80
2023/01/13 01:02:53;;;;;;;;;;;;;;;;;;4945639;29;19925;-81
2023/01/13 01:05:18;;;;;;;;;;;;;;;;;;4912629;29;19925;-81
2023/01/13 01:07:43;;;;;;;;;;;;;;;;;;4944747;29;19946;-80
2023/01/13 01:10:09;;;;;;;;;;;;;;;;;;4943821;29;19915;-81
2023/01/13 01:12:34;;;;;;;;;;;;;;;;;;4910545;29;19961;-81
2023/01/13 01:15:00;;;;;;;;;;;;;;;;;;4943706;29;19969;-81
2023/01/13 01:17:25;;;;;;;;;;;;;;;;;;4927966;29;19915;-81
2023/01/13 01:19:50;;;;;;;;;;;;;;;;;;4927872;29;19915;-80
2023/01/13 01:22:16;;;;;;;;;;;;;;;;;;4927635;29;19919;-80
2023/01/13 01:24:41;;;;;;;;;;;;;;;;;;4912253;29;19941;-81
2023/01/13 01:27:06;;;;;;;;;;;;;;;;;;4928901;29;19915;-81
2023/01/13 01:29:32;;;;;;;;;;;;;;;;;;4946247;29;19919;-81
2023/01/13 01:31:58;;;;;;;;;;;;;;;;;;4927437;29;20274;-80
2023/01/13 01:34:23;;;;;;;;;;;;;;;;;;4944228;29;19963;-81
2023/01/13 01:36:48;;;;;;;;;;;;;;;;;;4944732;29;20327;-80
2023/01/13 01:39:14;;;;;;;;;;;;;;;;;;4910365;29;19918;-81
2023/01/13 01:43:57;;;;;;;;;;;;;;;;;;4943201;29;19950;-81
2023/01/13 01:44:24;;;;;;;;;;;;;;;;;;4925619;29;19915;-80
2023/01/13 01:46:50;;;;;;;;;;;;;;;;;;4942772;29;19983;-81
2023/01/13 01:49:15;;;;;;;;;;;;;;;;;;4925473;29;19998;-81
2023/01/13 01:51:41;;;;;;;;;;;;;;;;;;4925029;29;20014;-81
2023/01/13 01:54:06;;;;;;;;;;;;;;;;;;4926979;29;20004;-81
2023/01/13 01:56:32;;;;;;;;;;;;;;;;;;4928639;29;19915;-80
2023/01/13 01:58:57;;;;;;;;;;;;;;;;;;4912688;29;19922;-81
2023/01/13 02:01:22;;;;;;;;;;;;;;;;;;4912890;29;19950;-80
2023/01/13 02:03:48;;;;;;;;;;;;;;;;;;4928135;29;19961;-81
2023/01/13 02:06:13;;;;;;;;;;;;;;;;;;4926832;29;19938;-80
2023/01/13 02:08:39;;;;;;;;;;;;;;;;;;4927434;29;19970;-82
2023/01/13 02:11:04;;;;;;;;;;;;;;;;;;4945581;29;19915;-81
2023/01/13 02:13:29;;;;;;;;;;;;;;;;;;4913439;29;19922;-82
2023/01/13 02:15:55;;;;;;;;;;;;;;;;;;4927690;29;19921;-82
2023/01/13 02:18:20;;;;;;;;;;;;;;;;;;4945134;29;19934;-81
2023/01/13 02:20:46;;;;;;;;;;;;;;;;;;4928381;29;20366;-81
2023/01/13 02:24:52;;;;;;;;;;;;;;;;;;4928764;29;19915;-81
2023/01/13 02:25:56;;;;;;;;;;;;;;;;;;4944495;29;19915;-81
2023/01/13 02:28:22;;;;;;;;;;;;;;;;;;4946429;29;19926;-81
2023/01/13 02:33:31;;;;;;;;;;;;;;;;;;4948500;29;19914;-81
2023/01/13 02:35:57;;;;;;;;;;;;;;;;;;4948034;29;20428;-81
2023/01/13 02:38:22;;;;;;;;;;;;;;;;;;4931381;29;20353;-81
2023/01/13 02:40:47;;;;;;;;;;;;;;;;;;4949259;29;20378;-81
2023/01/13 02:45:57;;;;;;;;;;;;;;;;;;4950326;29;19922;-81
2023/01/13 02:48:22;;;;;;;;;;;;;;;;;;4934283;29;20389;-82
2023/01/13 02:50:48;;;;;;;;;;;;;;;;;;4947857;29;19939;-81
2023/01/13 02:53:13;;;;;;;;;;;;;;;;;;4931714;29;19915;-81
2023/01/13 02:55:39;;;;;;;;;;;;;;;;;;4933545;29;19946;-81
2023/01/13 02:58:04;;;;;;;;;;;;;;;;;;4917718;29;19922;-81
2023/01/13 03:00:29;;;;;;;;;;;;;;;;;;4933725;29;19958;-81
2023/01/13 03:02:55;;;;;;;;;;;;;;;;;;4932018;29;19919;-81
2023/01/13 03:05:20;;;;;;;;;;;;;;;;;;4950835;29;19921;-80
2023/01/13 03:07:46;;;;;;;;;;;;;;;;;;4935672;29;19915;-81
2023/01/13 03:10:11;;;;;;;;;;;;;;;;;;4950016;29;19915;-81
2023/01/13 03:12:36;;;;;;;;;;;;;;;;;;4946239;29;19961;-81
2023/01/13 03:15:02;;;;;;;;;;;;;;;;;;4943409;29;20396;-79
2023/01/13 03:17:27;;;;;;;;;;;;;;;;;;4945151;29;20446;-80
2023/01/13 03:19:53;;;;;;;;;;;;;;;;;;4943085;29;19922;-81
2023/01/13 03:22:18;;;;;;;;;;;;;;;;;;4943528;29;19926;-81
2023/01/13 03:24:43;;;;;;;;;;;;;;;;;;4943286;29;19942;-81
2023/01/13 03:27:09;;;;;;;;;;;;;;;;;;4929130;29;20387;-81
2023/01/13 03:29:34;;;;;;;;;;;;;;;;;;4946892;29;19921;-82
2023/01/13 03:32:00;;;;;;;;;;;;;;;;;;4948135;29;19961;-82
2023/01/13 03:34:25;;;;;;;;;;;;;;;;;;4931249;29;19941;-81
2023/01/13 03:36:51;;;;;;;;;;;;;;;;;;4932795;29;19925;-81
2023/01/13 03:39:16;;;;;;;;;;;;;;;;;;4933350;29;19915;-81
2023/01/13 03:41:42;;;;;;;;;;;;;;;;;;4932710;29;19922;-82
2023/01/13 03:44:23;;;;;;;;;;;;;;;;;;4947902;29;19973;-80
2023/01/13 03:46:48;;;;;;;;;;;;;;;;;;4948644;29;19918;-80
2023/01/13 03:49:14;;;;;;;;;;;;;;;;;;4948910;29;19957;-81
2023/01/13 03:51:39;;;;;;;;;;;;;;;;;;4931379;29;19911;-81
2023/01/13 03:54:06;;;;;;;;;;;;;;;;;;4946416;29;19915;-80
2023/01/13 03:56:31;;;;;;;;;;;;;;;;;;4934457;29;19921;-81
2023/01/13 03:58:56;;;;;;;;;;;;;;;;;;4948402;29;19950;-81
2023/01/13 04:01:22;;;;;;;;;;;;;;;;;;4933353;29;19923;-80
2023/01/13 04:03:47;;;;;;;;;;;;;;;;;;4921970;29;19974;-78
2023/01/13 04:06:13;;;;;;;;;;;;;;;;;;4952720;29;19915;-81
2023/01/13 04:08:38;;;;;;;;;;;;;;;;;;4937096;29;19940;-80
2023/01/13 04:11:03;;;;;;;;;;;;;;;;;;4921410;29;19915;-81
2023/01/13 04:13:29;;;;;;;;;;;;;;;;;;4937665;29;19915;-80
2023/01/13 04:15:54;;;;;;;;;;;;;;;;;;4935113;29;19921;-80
2023/01/13 04:18:19;;;;;;;;;;;;;;;;;;4919518;29;19915;-82
2023/01/13 04:20:45;;;;;;;;;;;;;;;;;;4934894;29;19922;-81
2023/01/13 04:23:12;;;;;;;;;;;;;;;;;;4949143;29;19919;-80
2023/01/13 04:25:37;;;;;;;;;;;;;;;;;;4932498;29;19911;-81
2023/01/13 04:28:03;;;;;;;;;;;;;;;;;;4931089;29;19926;-80
2023/01/13 04:30:28;;;;;;;;;;;;;;;;;;4916031;29;20052;-82
2023/01/13 04:32:53;;;;;;;;;;;;;;;;;;4932943;29;19938;-81
2023/01/13 04:35:19;;;;;;;;;;;;;;;;;;4949784;29;19950;-81
2023/01/13 04:37:44;;;;;;;;;;;;;;;;;;4931770;29;19915;-81
2023/01/13 04:40:10;;;;;;;;;;;;;;;;;;4949278;29;19970;-80
2023/01/13 04:42:35;;;;;;;;;;;;;;;;;;4930494;29;20390;-80
2023/01/13 04:45:00;;;;;;;;;;;;;;;;;;4948737;29;19914;-81
2023/01/13 04:47:26;;;;;;;;;;;;;;;;;;4948612;29;19982;-81
2023/01/13 04:49:51;;;;;;;;;;;;;;;;;;4947583;29;19915;-80
2023/01/13 04:52:17;;;;;;;;;;;;;;;;;;4915846;29;19922;-81
2023/01/13 04:54:42;;;;;;;;;;;;;;;;;;4948842;29;20044;-82
2023/01/13 04:57:07;;;;;;;;;;;;;;;;;;4948332;29;19915;-80
2023/01/13 04:59:33;;;;;;;;;;;;;;;;;;4946774;29;19922;-81
2023/01/13 05:01:58;;;;;;;;;;;;;;;;;;4947941;29;20025;-81
2023/01/13 05:04:23;;;;;;;;;;;;;;;;;;4949299;29;20282;-81
2023/01/13 05:06:49;;;;;;;;;;;;;;;;;;4950073;29;20393;-80
2023/01/13 05:09:14;;;;;;;;;;;;;;;;;;4933238;29;20310;-81
2023/01/13 05:17:08;;;;;;;;;;;;;;;;;;4951109;29;19978;-82
2023/01/13 05:19:34;;;;;;;;;;;;;;;;;;4950436;29;20366;-81
2023/01/13 05:27:28;;;;;;;;;;;;;;;;;;4950445;29;19937;-80
2023/01/13 05:29:53;;;;;;;;;;;;;;;;;;4933927;29;20370;-81
2023/01/13 05:32:19;;;;;;;;;;;;;;;;;;4931620;29;19961;-81
2023/01/13 05:34:44;;;;;;;;;;;;;;;;;;4930726;29;19925;-81
2023/01/13 05:37:12;;;;;;;;;;;;;;;;;;4916154;29;19915;-80
2023/01/13 05:45:05;;;;;;;;;;;;;;;;;;4927211;29;19995;-81
2023/01/13 05:47:31;;;;;;;;;;;;;;;;;;4945510;29;20379;-81
2023/01/13 05:49:56;;;;;;;;;;;;;;;;;;4927317;29;19921;-80
2023/01/13 05:52:22;;;;;;;;;;;;;;;;;;4944457;29;19966;-80
2023/01/13 05:54:47;;;;;;;;;;;;;;;;;;4926364;29;19998;-81
2023/01/13 05:57:12;;;;;;;;;;;;;;;;;;4927506;29;20361;-80
2023/01/13 05:59:38;;;;;;;;;;;;;;;;;;4927600;29;19914;-80
2023/01/13 06:02:03;;;;;;;;;;;;;;;;;;4944670;29;19965;-80
2023/01/13 06:04:28;;;;;;;;;;;;;;;;;;4911508;29;20009;-81
2023/01/13 06:06:54;;;;;;;;;;;;;;;;;;4944985;29;19914;-81
2023/01/13 06:09:21;;;;;;;;;;;;;;;;;;4945371;29;20378;-81
2023/01/13 06:11:46;;;;;;;;;;;;;;;;;;4912886;29;19915;-81
2023/01/13 06:14:12;;;;;;;;;;;;;;;;;;4912749;29;19939;-80
2023/01/13 06:16:38;;;;;;;;;;;;;;;;;;4914232;29;19922;-81
2023/01/13 06:19:07;;;;;;;;;;;;;;;;;;4946663;29;19990;-81
2023/01/13 06:21:33;;;;;;;;;;;;;;;;;;4928204;29;20572;-80
2023/01/13 06:23:58;;;;;;;;;;;;;;;;;;4913356;29;20444;-80
2023/01/13 06:26:24;;;;;;;;;;;;;;;;;;4948028;29;19915;-81
2023/01/13 06:28:49;;;;;;;;;;;;;;;;;;4947819;29;19915;-80
2023/01/13 06:31:14;;;;;;;;;;;;;;;;;;4946444;29;19915;-81
2023/01/13 06:33:40;;;;;;;;;;;;;;;;;;4927963;29;19922;-80
2023/01/13 06:36:05;;;;;;;;;;;;;;;;;;4927094;29;20005;-81
2023/01/13 06:38:31;;;;;;;;;;;;;;;;;;4945548;29;19965;-81
2023/01/13 06:40:56;;;;;;;;;;;;;;;;;;4929727;29;19987;-80
2023/01/13 06:43:21;;;;;;;;;;;;;;;;;;4898529;29;19915;-81
2023/01/13 06:45:47;;;;;;;;;;;;;;;;;;4928830;29;19921;-81
2023/01/13 06:48:12;;;;;;;;;;;;;;;;;;4931311;29;19919;-81
2023/01/13 06:50:38;;;;;;;;;;;;;;;;;;4949390;29;20282;-81
2023/01/13 06:53:03;;;;;;;;;;;;;;;;;;4950593;29;19914;-82
2023/01/13 06:55:29;;;;;;;;;;;;;;;;;;4935042;29;19939;-82
2023/01/13 06:57:54;;;;;;;;;;;;;;;;;;4928676;29;19914;-82
2023/01/13 07:00:20;;;;;;;;;;;;;;;;;;4940411;29;20433;-82
2023/01/13 07:02:45;;;;;;;;;;;;;;;;;;4921366;29;19961;-80
2023/01/13 07:05:10;;;;;;;;;;;;;;;;;;4918920;29;19953;-82
2023/01/13 07:07:36;;;;;;;;;;;;;;;;;;4934822;29;20007;-80
2023/01/13 07:10:02;;;;;;;;;;;;;;;;;;4919002;29;20005;-80
2023/01/13 07:12:27;;;;;;;;;;;;;;;;;;4903564;29;20013;-78
2023/01/13 07:17:37;;;;;;;;;;;;;;;;;;4918987;29;20278;-76
2023/01/13 07:20:02;;;;;;;;;;;;;;;;;;4919004;29;19918;-75
2023/01/13 07:22:28;;;;;;;;;;;;;;;;;;4919268;29;20301;-76
2023/01/13 07:24:54;;;;;;;;;;;;;;;;;;4918751;29;19914;-76
2023/01/13 07:27:19;;;;;;;;;;;;;;;;;;4935825;29;20331;-76
2023/01/13 07:29:44;;;;;;;;;;;;;;;;;;4936373;29;19930;-76
2023/01/13 07:32:10;;;;;;;;;;;;;;;;;;4938511;29;20282;-76
2023/01/13 07:34:35;;;;;;;;;;;;;;;;;;4937743;29;19968;-75
2023/01/13 07:37:01;;;;;;;;;;;;;;;;;;4908312;29;19918;-76
2023/01/13 07:39:26;;;;;;;;;;;;;;;;;;4941107;29;19914;-76
2023/01/13 07:44:36;;;;;;;;;;;;;;;;;;4922745;29;20271;-75
2023/01/13 07:47:01;;;;;;;;;;;;;;;;;;4922653;29;19939;-75
2023/01/13 07:49:27;;;;;;;;;;;;;;;;;;4940165;29;19969;-76
2023/01/13 07:51:52;;;;;;;;;;;;;;;;;;4923053;29;20559;-76
2023/01/13 07:54:18;;;;;;;;;;;;;;;;;;4922353;29;20001;-75
2023/01/13 07:56:43;;;;;;;;;;;;;;;;;;4939496;29;19958;-76
2023/01/13 07:59:08;;;;;;;;;;;;;;;;;;4906984;29;19954;-76
2023/01/13 08:01:34;;;;;;;;;;;;;;;;;;4922503;29;19941;-76
2023/01/13 08:03:59;;;;;;;;;;;;;;;;;;4922831;29;19977;-75
2023/01/13 08:06:25;;;;;;;;;;;;;;;;;;4906464;29;19915;-75
2023/01/13 08:08:50;;;;;;;;;;;;;;;;;;4939925;29;19922;-75
2023/01/13 08:11:15;;;;;;;;;;;;;;;;;;4922938;29;19914;-76
2023/01/13 08:13:41;;;;;;;;;;;;;;;;;;4939281;29;20446;-76
2023/01/13 08:16:06;;;;;;;;;;;;;;;;;;4939913;29;19914;-75
2023/01/13 08:18:45;;;;;;;;;;;;;;;;;;;;;
2023/01/13 08:21:18;;;;;;;;;;;;;;;;;;4939835;29;20531;-75
2023/01/13 08:23:43;;;;;;;;;;;;;;;;;;4939501;29;19930;-76
2023/01/13 08:26:10;;;;;;;;;;;;;;;;;;4922478;29;20233;-75
2023/01/13 08:31:29;;;;;;;;;;;;;;;;;;4939642;29;19921;-76
2023/01/13 08:33:54;;;;;;;;;;;;;;;;;;4922201;29;20001;-77
2023/01/13 08:36:20;;;;;;;;;;;;;;;;;;4939079;29;20297;-75
2023/01/13 08:38:45;;;;;;;;;;;;;;;;;;4938832;29;19915;-76
2023/01/13 08:41:11;;;;;;;;;;;;;;;;;;4938801;29;19915;-76
2023/01/13 08:43:36;;;;;;;;;;;;;;;;;;4922292;29;19988;-76
2023/01/13 08:46:03;;;;;;;;;;;;;;;;;;4921494;29;19922;-76
2023/01/13 08:48:29;;;;;;;;;;;;;;;;;;4938360;29;19915;-76
2023/01/13 08:50:55;;;;;;;;;;;;;;;;;;4938314;29;19993;-75
2023/01/13 08:53:20;;;;;;;;;;;;;;;;;;4889901;29;19955;-76
2023/01/13 08:55:49;;;;;;;;;;;;;;;;;;4922143;29;19915;-76
2023/01/13 08:58:14;;;;;;;;;;;;;;;;;;4905965;29;19922;-76
2023/01/13 09:00:39;;;;;;;;;;;;;;;;;;4905486;29;19970;-75
2023/01/13 09:03:05;;;;;;;;;;;;;;;;;;4921311;29;19919;-76
2023/01/13 09:05:30;;;;;;;;;;;;;;;;;;4921433;29;20323;-76
2023/01/13 09:07:56;;;;;;;;;;;;;;;;;;4890619;29;20002;-76
2023/01/13 09:10:21;;;;;;;;;;;;;;;;;;4921077;29;19921;-77
2023/01/13 09:15:31;;;;;;;;;;;;;;;;;;4921267;29;19915;-77
2023/01/13 09:17:56;;;;;;;;;;;;;;;;;;4922509;29;19915;-77
2023/01/13 09:20:22;;;;;;;;;;;;;;;;;;4937980;29;19982;-77
2023/01/13 09:22:47;;;;;;;;;;;;;;;;;;4938221;29;19965;-77
2023/01/13 09:25:12;;;;;;;;;;;;;;;;;;4920700;29;20341;-77
2023/01/13 09:27:38;;;;;;;;;;;;;;;;;;4938636;29;19969;-77
2023/01/13 09:30:03;;;;;;;;;;;;;;;;;;4938288;29;19915;-77
2023/01/13 09:32:29;;;;;;;;;;;;;;;;;;4921932;29;19914;-77
2023/01/13 09:35:00;;;;;;;;;;;;;;;;;;4905569;29;19998;-78
2023/01/13 09:37:26;;;;;;;;;;;;;;;;;;4921627;29;20021;-79
2023/01/13 09:39:51;;;;;;;;;;;;;;;;;;4939353;29;20481;-78
2023/01/13 09:45:03;;;;;;;;;;;;;;;;;;4937900;29;20362;-79
2023/01/13 09:47:28;;;;;;;;;;;;;;;;;;4920674;29;20381;-79
2023/01/13 09:49:54;;;;;;;;;;;;;;;;;;4920849;29;19915;-78
2023/01/13 09:52:19;;;;;;;;;;;;;;;;;;4938512;29;19973;-80
2023/01/13 09:54:45;;;;;;;;;;;;;;;;;;4920691;29;19915;-79
2023/01/13 09:57:10;;;;;;;;;;;;;;;;;;4938847;29;20019;-79
2023/01/13 09:59:37;;;;;;;;;;;;;;;;;;4920425;29;19915;-80
2023/01/13 10:02:02;;;;;;;;;;;;;;;;;;4921880;29;20347;-80
2023/01/13 10:04:28;;;;;;;;;;;;;;;;;;4921169;29;19915;-80
2023/01/13 10:06:55;;;;;;;;;;;;;;;;;;4938544;29;20076;-81
2023/01/13 10:09:20;;;;;;;;;;;;;;;;;;4907192;29;20366;-80
2023/01/13 10:14:30;;;;;;;;;;;;;;;;;;4942016;29;19961;-82
2023/01/13 10:16:55;;;;;;;;;;;;;;;;;;4943179;29;20330;-82
2023/01/13 10:19:21;;;;;;;;;;;;;;;;;;4945887;29;20385;-81
2023/01/13 10:21:46;;;;;;;;;;;;;;;;;;4946839;29;19919;-81
2023/01/13 10:24:12;;;;;;;;;;;;;;;;;;4933464;29;19914;-82
2023/01/13 10:26:37;;;;;;;;;;;;;;;;;;4951687;29;19930;-82
2023/01/13 10:29:03;;;;;;;;;;;;;;;;;;4954592;29;19919;-82
2023/01/13 10:31:28;;;;;;;;;;;;;;;;;;4938693;29;19915;-82
2023/01/13 10:33:54;;;;;;;;;;;;;;;;;;4939673;29;19914;-82
2023/01/13 10:36:21;;;;;;;;;;;;;;;;;;4939412;29;19918;-82
2023/01/13 10:38:47;;;;;;;;;;;;;;;;;;4920370;29;19938;-82
2023/01/13 10:41:12;;;;;;;;;;;;;;;;;;4948468;29;19950;-83
2023/01/13 10:43:38;;;;;;;;;;;;;;;;;;4951750;29;19915;-83
2023/01/13 10:46:04;;;;;;;;;;;;;;;;;;4933617;29;19925;-82
2023/01/13 10:48:30;;;;;;;;;;;;;;;;;;4933889;29;19915;-82
2023/01/13 10:50:57;;;;;;;;;;;;;;;;;;4951740;29;19915;-82
2023/01/13 10:53:23;;;;;;;;;;;;;;;;;;4919729;29;20110;-82
2023/01/13 10:55:49;;;;;;;;;;;;;;;;;;4905771;29;19915;-83
2023/01/13 10:58:17;;;;;;;;;;;;;;;;;;4938703;29;19943;-83
2023/01/13 11:00:42;;;;;;;;;;;;;;;;;;4921964;29;19922;-82
2023/01/13 11:03:17;;;;;;;;;;;;;;;;;;4935208;29;19918;-83
2023/01/13 11:05:43;;;;;;;;;;;;;;;;;;4919428;29;20461;-83
2023/01/13 11:08:08;;;;;;;;;;;;;;;;;;4921945;29;20297;-82
2023/01/13 11:10:37;;;;;;;;;;;;;;;;;;4923730;29;19915;-84
2023/01/13 11:13:02;;;;;;;;;;;;;;;;;;4941903;29;19922;-83
2023/01/13 11:15:28;;;;;;;;;;;;;;;;;;4926101;29;19914;-83
2023/01/13 11:18:11;;;;;;;;;;;;;;;;;;4925675;28;19899;-84
2023/01/13 11:20:46;;;;;;;;;;;;;;;;;;4911317;29;19919;-82
2023/01/13 11:23:12;;;;;;;;;;;;;;;;;;4922400;29;19942;-82
2023/01/13 11:25:41;;;;;;;;;;;;;;;;;;4937345;29;20306;-83
2023/01/13 11:28:07;;;;;;;;;;;;;;;;;;4938016;29;19917;-83
2023/01/13 11:30:32;;;;;;;;;;;;;;;;;;4940578;29;19962;-83
2023/01/13 11:33:03;;;;;;;;;;;;;;;;;;4925965;29;20005;-83
2023/01/13 11:35:29;;;;;;;;;;;;;;;;;;4939697;29;19946;-85
2023/01/13 11:37:55;;;;;;;;;;;;;;;;;;4908207;29;19926;-83
2023/01/13 11:40:20;;;;;;;;;;;;;;;;;;4908933;29;19914;-84
2023/01/13 11:42:46;;;;;;;;;;;;;;;;;;4909205;29;19925;-84
2023/01/13 11:45:20;;;;;;;;;;;;;;;;;;4956321;29;20411;-82
2023/01/13 11:47:46;;;;;;;;;;;;;;;;;;4940801;29;19915;-83
2023/01/13 11:50:15;;;;;;;;;;;;;;;;;;4926308;29;19946;-82
2023/01/13 11:52:43;;;;;;;;;;;;;;;;;;4941621;29;19919;-83
2023/01/13 11:55:09;;;;;;;;;;;;;;;;;;4941826;29;19921;-83
2023/01/13 11:57:35;;;;;;;;;;;;;;;;;;4926198;29;19965;-84
2023/01/13 12:00:04;;;;;;;;;;;;;;;;;;4927775;29;19907;-84
2023/01/13 12:02:47;;;;;;;;;;;;;;;;;;4929057;29;19961;-84
2023/01/13 13:19:55;;;;;;;;;;;;;;;;;;5623061;23;20656;-84
2023/01/13 14:08:02;;;;;;;;;;;;;;;;;;5865977;23;19919;-84
2023/01/13 14:16:03;;;;;;;;;;;;;;;;;;5572491;23;19926;-84
2023/01/13 14:23:49;;;;;;;;;;;;;;;;;;5090166;23;19918;-84
2023/01/13 14:26:20;;;;;;;;;;;;;;;;;;4930090;28;19923;-84
2023/01/13 14:28:46;;;;;;;;;;;;;;;;;;4944704;29;19915;-84
2023/01/13 14:31:14;;;;;;;;;;;;;;;;;;4944292;29;19915;-84
2023/01/13 14:33:44;;;;;;;;;;;;;;;;;;4960467;29;19967;-84
2023/01/13 14:36:10;;;;;;;;;;;;;;;;;;4944898;29;19915;-84
2023/01/13 14:41:18;;;;;;;;;;;;;;;;;;5149972;23;19910;-84
2023/01/13 14:43:46;;;;;;;;;;;;;;;;;;4945369;29;19942;-83
2023/01/13 15:11:32;;;;;;;;;;;;;;;;;;5708313;23;19926;-82
2023/01/13 15:14:18;;;;;;;;;;;;;;;;;;;;;
2023/01/13 15:19:38;;;;;;;;;;;;;;;;;;5493637;23;19914;-85
2023/01/13 15:22:15;;;;;;;;;;;;;;;;;;5482487;23;19917;-80
2023/01/13 15:51:52;;;;;;;;;;;;;;;;;;5779263;23;19910;-87
2023/01/13 16:16:07;;;;;;;;;;;;;;;;;;5931495;23;19921;-82
2023/01/13 18:12:58;;;;;;;;;;;;;;;;;;5690493;23;19911;-84
